<?xml version="1.0" encoding="UTF-8" standalone="no" ?>
<gpx xmlns="http://www.topografix.com/GPX/1/1" xmlns:xsi="http://www.w3.org/2001/XMLSchema-instance" xsi:schemaLocation="http://www.topografix.com/GPX/1/1 http://www.topografix.com/GPX/1/1/gpx.xsd" version="1.1" creator="VisuGPX - https://www.visugpx.com">
  <metadata>
    <name>ROQUEFORT LES PINS CAMP TRACIER</name>
    <desc><![CDATA[Balade agréable beaucoup en sous-bois, à l'abri des grands vents.....
]]></desc>
  </metadata>
  <trk>
    <name><![CDATA[ROQUEFORT LES PINS]]></name>
    <trkseg>
      <trkpt lat="43.6797" lon="7.05166">
        <ele>197</ele>
        <time>2020-01-22T13:16:53Z</time>
      </trkpt>
      <trkpt lat="43.6797" lon="7.05166">
        <ele>196.6</ele>
        <time>2020-01-22T13:16:54Z</time>
      </trkpt>
      <trkpt lat="43.67976" lon="7.05181">
        <ele>197.4</ele>
        <time>2020-01-22T13:17:15Z</time>
      </trkpt>
      <trkpt lat="43.67964" lon="7.05197">
        <ele>197.8</ele>
        <time>2020-01-22T13:17:30Z</time>
      </trkpt>
      <trkpt lat="43.67949" lon="7.05221">
        <ele>200</ele>
        <time>2020-01-22T13:17:54Z</time>
      </trkpt>
      <trkpt lat="43.67946" lon="7.05238">
        <ele>200.6</ele>
        <time>2020-01-22T13:18:06Z</time>
      </trkpt>
      <trkpt lat="43.67942" lon="7.05256">
        <ele>201.6</ele>
        <time>2020-01-22T13:18:21Z</time>
      </trkpt>
      <trkpt lat="43.67939" lon="7.05271">
        <ele>202.8</ele>
        <time>2020-01-22T13:18:32Z</time>
      </trkpt>
      <trkpt lat="43.67935" lon="7.0532">
        <ele>208.2</ele>
        <time>2020-01-22T13:19:10Z</time>
      </trkpt>
      <trkpt lat="43.67941" lon="7.05382">
        <ele>212.8</ele>
        <time>2020-01-22T13:19:59Z</time>
      </trkpt>
      <trkpt lat="43.67919" lon="7.05414">
        <ele>215.6</ele>
        <time>2020-01-22T13:20:42Z</time>
      </trkpt>
      <trkpt lat="43.679" lon="7.05404">
        <ele>217</ele>
        <time>2020-01-22T13:21:00Z</time>
      </trkpt>
      <trkpt lat="43.67877" lon="7.05384">
        <ele>219.4</ele>
        <time>2020-01-22T13:21:30Z</time>
      </trkpt>
      <trkpt lat="43.67867" lon="7.0538">
        <ele>220.2</ele>
        <time>2020-01-22T13:21:43Z</time>
      </trkpt>
      <trkpt lat="43.67861" lon="7.05377">
        <ele>220.6</ele>
        <time>2020-01-22T13:21:48Z</time>
      </trkpt>
      <trkpt lat="43.67819" lon="7.05351">
        <ele>220.6</ele>
        <time>2020-01-22T13:22:23Z</time>
      </trkpt>
      <trkpt lat="43.67781" lon="7.05318">
        <ele>224.4</ele>
        <time>2020-01-22T13:23:16Z</time>
      </trkpt>
      <trkpt lat="43.6775" lon="7.05302">
        <ele>229</ele>
        <time>2020-01-22T13:23:45Z</time>
      </trkpt>
      <trkpt lat="43.67706" lon="7.05284">
        <ele>229.8</ele>
        <time>2020-01-22T13:24:18Z</time>
      </trkpt>
      <trkpt lat="43.67672" lon="7.05253">
        <ele>231.8</ele>
        <time>2020-01-22T13:24:55Z</time>
      </trkpt>
      <trkpt lat="43.67629" lon="7.05236">
        <ele>237</ele>
        <time>2020-01-22T13:25:43Z</time>
      </trkpt>
      <trkpt lat="43.67624" lon="7.05237">
        <ele>238.8</ele>
        <time>2020-01-22T13:25:47Z</time>
      </trkpt>
      <trkpt lat="43.67593" lon="7.05235">
        <ele>247.8</ele>
        <time>2020-01-22T13:26:15Z</time>
      </trkpt>
      <trkpt lat="43.67549" lon="7.05247">
        <ele>249.8</ele>
        <time>2020-01-22T13:26:52Z</time>
      </trkpt>
      <trkpt lat="43.67504" lon="7.05258">
        <ele>246.6</ele>
        <time>2020-01-22T13:27:28Z</time>
      </trkpt>
      <trkpt lat="43.6746" lon="7.05279">
        <ele>243.6</ele>
        <time>2020-01-22T13:28:03Z</time>
      </trkpt>
      <trkpt lat="43.67424" lon="7.05316">
        <ele>245.2</ele>
        <time>2020-01-22T13:28:38Z</time>
      </trkpt>
      <trkpt lat="43.67395" lon="7.05354">
        <ele>247</ele>
        <time>2020-01-22T13:29:15Z</time>
      </trkpt>
      <trkpt lat="43.67375" lon="7.05376">
        <ele>248.6</ele>
        <time>2020-01-22T13:29:39Z</time>
      </trkpt>
      <trkpt lat="43.67339" lon="7.05413">
        <ele>248.2</ele>
        <time>2020-01-22T13:30:23Z</time>
      </trkpt>
      <trkpt lat="43.67335" lon="7.05416">
        <ele>248.4</ele>
        <time>2020-01-22T13:30:36Z</time>
      </trkpt>
      <trkpt lat="43.67334" lon="7.05418">
        <ele>248.8</ele>
        <time>2020-01-22T13:30:56Z</time>
      </trkpt>
      <trkpt lat="43.67334" lon="7.05418">
        <ele>249.4</ele>
        <time>2020-01-22T13:31:05Z</time>
      </trkpt>
      <trkpt lat="43.67335" lon="7.05418">
        <ele>252</ele>
        <time>2020-01-22T13:31:49Z</time>
      </trkpt>
      <trkpt lat="43.67334" lon="7.05418">
        <ele>250</ele>
        <time>2020-01-22T13:32:13Z</time>
      </trkpt>
      <trkpt lat="43.67325" lon="7.05427">
        <ele>251.4</ele>
        <time>2020-01-22T13:33:20Z</time>
      </trkpt>
      <trkpt lat="43.67295" lon="7.05451">
        <ele>252.4</ele>
        <time>2020-01-22T13:33:55Z</time>
      </trkpt>
      <trkpt lat="43.67286" lon="7.0546">
        <ele>250.6</ele>
        <time>2020-01-22T13:34:03Z</time>
      </trkpt>
      <trkpt lat="43.67281" lon="7.05464">
        <ele>251.6</ele>
        <time>2020-01-22T13:34:08Z</time>
      </trkpt>
      <trkpt lat="43.67272" lon="7.05477">
        <ele>253.8</ele>
        <time>2020-01-22T13:34:20Z</time>
      </trkpt>
      <trkpt lat="43.67237" lon="7.05518">
        <ele>255.8</ele>
        <time>2020-01-22T13:34:58Z</time>
      </trkpt>
      <trkpt lat="43.67226" lon="7.05527">
        <ele>258.8</ele>
        <time>2020-01-22T13:35:13Z</time>
      </trkpt>
      <trkpt lat="43.67219" lon="7.05532">
        <ele>261.6</ele>
        <time>2020-01-22T13:35:55Z</time>
      </trkpt>
      <trkpt lat="43.67211" lon="7.0554">
        <ele>261.4</ele>
        <time>2020-01-22T13:36:02Z</time>
      </trkpt>
      <trkpt lat="43.67182" lon="7.05576">
        <ele>256.4</ele>
        <time>2020-01-22T13:36:35Z</time>
      </trkpt>
      <trkpt lat="43.67169" lon="7.05593">
        <ele>253.2</ele>
        <time>2020-01-22T13:36:49Z</time>
      </trkpt>
      <trkpt lat="43.67139" lon="7.05632">
        <ele>249.4</ele>
        <time>2020-01-22T13:37:25Z</time>
      </trkpt>
      <trkpt lat="43.67106" lon="7.05676">
        <ele>251.4</ele>
        <time>2020-01-22T13:38:04Z</time>
      </trkpt>
      <trkpt lat="43.6707" lon="7.05715">
        <ele>251</ele>
        <time>2020-01-22T13:38:41Z</time>
      </trkpt>
      <trkpt lat="43.67056" lon="7.0573">
        <ele>249.8</ele>
        <time>2020-01-22T13:38:55Z</time>
      </trkpt>
      <trkpt lat="43.67018" lon="7.05764">
        <ele>246</ele>
        <time>2020-01-22T13:39:35Z</time>
      </trkpt>
      <trkpt lat="43.67008" lon="7.05776">
        <ele>240</ele>
        <time>2020-01-22T13:40:30Z</time>
      </trkpt>
      <trkpt lat="43.66974" lon="7.05809">
        <ele>248</ele>
        <time>2020-01-22T13:41:16Z</time>
      </trkpt>
      <trkpt lat="43.66978" lon="7.05811">
        <ele>247.8</ele>
        <time>2020-01-22T13:41:23Z</time>
      </trkpt>
      <trkpt lat="43.66993" lon="7.05811">
        <ele>248.2</ele>
        <time>2020-01-22T13:41:48Z</time>
      </trkpt>
      <trkpt lat="43.67036" lon="7.0581">
        <ele>247</ele>
        <time>2020-01-22T13:42:31Z</time>
      </trkpt>
      <trkpt lat="43.67052" lon="7.05819">
        <ele>246.8</ele>
        <time>2020-01-22T13:42:49Z</time>
      </trkpt>
      <trkpt lat="43.6709" lon="7.05851">
        <ele>245.8</ele>
        <time>2020-01-22T13:43:33Z</time>
      </trkpt>
      <trkpt lat="43.67101" lon="7.05882">
        <ele>244.6</ele>
        <time>2020-01-22T13:43:55Z</time>
      </trkpt>
      <trkpt lat="43.67116" lon="7.05903">
        <ele>247.4</ele>
        <time>2020-01-22T13:44:16Z</time>
      </trkpt>
      <trkpt lat="43.67132" lon="7.059">
        <ele>246.8</ele>
        <time>2020-01-22T13:44:37Z</time>
      </trkpt>
      <trkpt lat="43.67177" lon="7.05907">
        <ele>242</ele>
        <time>2020-01-22T13:45:15Z</time>
      </trkpt>
      <trkpt lat="43.6721" lon="7.05905">
        <ele>243</ele>
        <time>2020-01-22T13:45:46Z</time>
      </trkpt>
      <trkpt lat="43.67229" lon="7.05908">
        <ele>242</ele>
        <time>2020-01-22T13:46:03Z</time>
      </trkpt>
      <trkpt lat="43.67246" lon="7.05909">
        <ele>241</ele>
        <time>2020-01-22T13:46:18Z</time>
      </trkpt>
      <trkpt lat="43.67261" lon="7.05918">
        <ele>240.2</ele>
        <time>2020-01-22T13:46:31Z</time>
      </trkpt>
      <trkpt lat="43.67265" lon="7.05917">
        <ele>240.6</ele>
        <time>2020-01-22T13:46:37Z</time>
      </trkpt>
      <trkpt lat="43.67309" lon="7.05904">
        <ele>238.6</ele>
        <time>2020-01-22T13:47:25Z</time>
      </trkpt>
      <trkpt lat="43.67321" lon="7.05905">
        <ele>238.4</ele>
        <time>2020-01-22T13:47:35Z</time>
      </trkpt>
      <trkpt lat="43.67329" lon="7.05906">
        <ele>239</ele>
        <time>2020-01-22T13:47:42Z</time>
      </trkpt>
      <trkpt lat="43.67346" lon="7.05909">
        <ele>239.8</ele>
        <time>2020-01-22T13:47:58Z</time>
      </trkpt>
      <trkpt lat="43.67374" lon="7.05903">
        <ele>244.4</ele>
        <time>2020-01-22T13:48:33Z</time>
      </trkpt>
      <trkpt lat="43.67413" lon="7.05915">
        <ele>243.2</ele>
        <time>2020-01-22T13:49:18Z</time>
      </trkpt>
      <trkpt lat="43.67426" lon="7.0593">
        <ele>239.8</ele>
        <time>2020-01-22T13:49:35Z</time>
      </trkpt>
      <trkpt lat="43.67452" lon="7.0594">
        <ele>238.8</ele>
        <time>2020-01-22T13:50:03Z</time>
      </trkpt>
      <trkpt lat="43.67494" lon="7.05964">
        <ele>244.6</ele>
        <time>2020-01-22T13:50:37Z</time>
      </trkpt>
      <trkpt lat="43.67518" lon="7.05975">
        <ele>242.6</ele>
        <time>2020-01-22T13:51:02Z</time>
      </trkpt>
      <trkpt lat="43.67539" lon="7.05944">
        <ele>238</ele>
        <time>2020-01-22T13:51:36Z</time>
      </trkpt>
      <trkpt lat="43.67543" lon="7.05945">
        <ele>239</ele>
        <time>2020-01-22T13:51:40Z</time>
      </trkpt>
      <trkpt lat="43.67556" lon="7.05945">
        <ele>239.8</ele>
        <time>2020-01-22T13:51:56Z</time>
      </trkpt>
      <trkpt lat="43.67563" lon="7.05939">
        <ele>238.6</ele>
        <time>2020-01-22T13:52:03Z</time>
      </trkpt>
      <trkpt lat="43.67595" lon="7.05957">
        <ele>234.8</ele>
        <time>2020-01-22T13:52:39Z</time>
      </trkpt>
      <trkpt lat="43.67612" lon="7.0597">
        <ele>231.4</ele>
        <time>2020-01-22T13:53:04Z</time>
      </trkpt>
      <trkpt lat="43.67621" lon="7.05974">
        <ele>229.6</ele>
        <time>2020-01-22T13:53:14Z</time>
      </trkpt>
      <trkpt lat="43.67627" lon="7.05977">
        <ele>231</ele>
        <time>2020-01-22T13:53:19Z</time>
      </trkpt>
      <trkpt lat="43.6767" lon="7.05997">
        <ele>232.4</ele>
        <time>2020-01-22T13:54:02Z</time>
      </trkpt>
      <trkpt lat="43.677" lon="7.05995">
        <ele>230</ele>
        <time>2020-01-22T13:54:33Z</time>
      </trkpt>
      <trkpt lat="43.677" lon="7.05995">
        <ele>230.4</ele>
        <time>2020-01-22T13:54:39Z</time>
      </trkpt>
      <trkpt lat="43.677" lon="7.05995">
        <ele>230</ele>
        <time>2020-01-22T13:54:45Z</time>
      </trkpt>
      <trkpt lat="43.67699" lon="7.05994">
        <ele>229</ele>
        <time>2020-01-22T13:55:13Z</time>
      </trkpt>
      <trkpt lat="43.677" lon="7.05998">
        <ele>228</ele>
        <time>2020-01-22T13:55:43Z</time>
      </trkpt>
      <trkpt lat="43.67701" lon="7.05998">
        <ele>227.6</ele>
        <time>2020-01-22T13:56:00Z</time>
      </trkpt>
      <trkpt lat="43.67702" lon="7.05998">
        <ele>237.2</ele>
        <time>2020-01-22T13:58:15Z</time>
      </trkpt>
      <trkpt lat="43.67704" lon="7.06009">
        <ele>234.4</ele>
        <time>2020-01-22T13:58:26Z</time>
      </trkpt>
      <trkpt lat="43.67692" lon="7.06069">
        <ele>220.4</ele>
        <time>2020-01-22T13:59:02Z</time>
      </trkpt>
      <trkpt lat="43.67688" lon="7.06086">
        <ele>219</ele>
        <time>2020-01-22T13:59:12Z</time>
      </trkpt>
      <trkpt lat="43.67678" lon="7.06128">
        <ele>220.8</ele>
        <time>2020-01-22T13:59:35Z</time>
      </trkpt>
      <trkpt lat="43.67661" lon="7.06175">
        <ele>222.6</ele>
        <time>2020-01-22T14:00:05Z</time>
      </trkpt>
      <trkpt lat="43.67641" lon="7.06231">
        <ele>222</ele>
        <time>2020-01-22T14:00:39Z</time>
      </trkpt>
      <trkpt lat="43.67632" lon="7.0629">
        <ele>227.4</ele>
        <time>2020-01-22T14:01:13Z</time>
      </trkpt>
      <trkpt lat="43.67635" lon="7.06331">
        <ele>223.4</ele>
        <time>2020-01-22T14:01:35Z</time>
      </trkpt>
      <trkpt lat="43.67636" lon="7.06353">
        <ele>218.8</ele>
        <time>2020-01-22T14:01:48Z</time>
      </trkpt>
      <trkpt lat="43.67636" lon="7.06358">
        <ele>217</ele>
        <time>2020-01-22T14:01:51Z</time>
      </trkpt>
      <trkpt lat="43.67636" lon="7.06364">
        <ele>216.2</ele>
        <time>2020-01-22T14:01:55Z</time>
      </trkpt>
      <trkpt lat="43.67638" lon="7.06384">
        <ele>213.6</ele>
        <time>2020-01-22T14:02:06Z</time>
      </trkpt>
      <trkpt lat="43.67639" lon="7.0639">
        <ele>213.4</ele>
        <time>2020-01-22T14:02:10Z</time>
      </trkpt>
      <trkpt lat="43.67626" lon="7.06449">
        <ele>208</ele>
        <time>2020-01-22T14:02:47Z</time>
      </trkpt>
      <trkpt lat="43.6763" lon="7.0651">
        <ele>209</ele>
        <time>2020-01-22T14:03:24Z</time>
      </trkpt>
      <trkpt lat="43.67614" lon="7.06558">
        <ele>198.8</ele>
        <time>2020-01-22T14:03:52Z</time>
      </trkpt>
      <trkpt lat="43.6759" lon="7.06609">
        <ele>203.8</ele>
        <time>2020-01-22T14:04:29Z</time>
      </trkpt>
      <trkpt lat="43.67576" lon="7.06614">
        <ele>210</ele>
        <time>2020-01-22T14:04:42Z</time>
      </trkpt>
      <trkpt lat="43.67538" lon="7.06638">
        <ele>202</ele>
        <time>2020-01-22T14:05:23Z</time>
      </trkpt>
      <trkpt lat="43.67538" lon="7.06649">
        <ele>194.2</ele>
        <time>2020-01-22T14:05:49Z</time>
      </trkpt>
      <trkpt lat="43.67537" lon="7.06648">
        <ele>194</ele>
        <time>2020-01-22T14:06:00Z</time>
      </trkpt>
      <trkpt lat="43.67536" lon="7.06648">
        <ele>193.8</ele>
        <time>2020-01-22T14:06:22Z</time>
      </trkpt>
      <trkpt lat="43.67536" lon="7.06648">
        <ele>195</ele>
        <time>2020-01-22T14:06:36Z</time>
      </trkpt>
      <trkpt lat="43.67535" lon="7.06657">
        <ele>195</ele>
        <time>2020-01-22T14:07:26Z</time>
      </trkpt>
      <trkpt lat="43.67537" lon="7.0672">
        <ele>196</ele>
        <time>2020-01-22T14:08:00Z</time>
      </trkpt>
      <trkpt lat="43.67562" lon="7.06765">
        <ele>195.8</ele>
        <time>2020-01-22T14:08:33Z</time>
      </trkpt>
      <trkpt lat="43.67596" lon="7.06805">
        <ele>192.8</ele>
        <time>2020-01-22T14:09:07Z</time>
      </trkpt>
      <trkpt lat="43.67633" lon="7.06843">
        <ele>191.8</ele>
        <time>2020-01-22T14:09:41Z</time>
      </trkpt>
      <trkpt lat="43.67673" lon="7.06872">
        <ele>193.2</ele>
        <time>2020-01-22T14:10:14Z</time>
      </trkpt>
      <trkpt lat="43.67691" lon="7.06884">
        <ele>197.2</ele>
        <time>2020-01-22T14:10:29Z</time>
      </trkpt>
      <trkpt lat="43.67733" lon="7.06908">
        <ele>199</ele>
        <time>2020-01-22T14:11:04Z</time>
      </trkpt>
      <trkpt lat="43.67756" lon="7.0692">
        <ele>194.2</ele>
        <time>2020-01-22T14:11:21Z</time>
      </trkpt>
      <trkpt lat="43.67785" lon="7.0693">
        <ele>193.4</ele>
        <time>2020-01-22T14:11:42Z</time>
      </trkpt>
      <trkpt lat="43.67831" lon="7.06938">
        <ele>183</ele>
        <time>2020-01-22T14:12:14Z</time>
      </trkpt>
      <trkpt lat="43.67877" lon="7.06946">
        <ele>182</ele>
        <time>2020-01-22T14:12:46Z</time>
      </trkpt>
      <trkpt lat="43.67922" lon="7.06953">
        <ele>191</ele>
        <time>2020-01-22T14:13:20Z</time>
      </trkpt>
      <trkpt lat="43.67953" lon="7.06958">
        <ele>192.8</ele>
        <time>2020-01-22T14:13:42Z</time>
      </trkpt>
      <trkpt lat="43.67998" lon="7.06963">
        <ele>181.4</ele>
        <time>2020-01-22T14:14:13Z</time>
      </trkpt>
      <trkpt lat="43.68039" lon="7.06954">
        <ele>176.2</ele>
        <time>2020-01-22T14:14:42Z</time>
      </trkpt>
      <trkpt lat="43.68085" lon="7.06953">
        <ele>177</ele>
        <time>2020-01-22T14:15:15Z</time>
      </trkpt>
      <trkpt lat="43.68099" lon="7.06954">
        <ele>176.6</ele>
        <time>2020-01-22T14:15:26Z</time>
      </trkpt>
      <trkpt lat="43.68144" lon="7.06958">
        <ele>178</ele>
        <time>2020-01-22T14:16:01Z</time>
      </trkpt>
      <trkpt lat="43.6819" lon="7.0696">
        <ele>180.6</ele>
        <time>2020-01-22T14:16:35Z</time>
      </trkpt>
      <trkpt lat="43.68223" lon="7.06957">
        <ele>185.8</ele>
        <time>2020-01-22T14:16:58Z</time>
      </trkpt>
      <trkpt lat="43.68229" lon="7.06954">
        <ele>185.4</ele>
        <time>2020-01-22T14:17:02Z</time>
      </trkpt>
      <trkpt lat="43.68241" lon="7.06949">
        <ele>186.2</ele>
        <time>2020-01-22T14:17:10Z</time>
      </trkpt>
      <trkpt lat="43.68249" lon="7.06946">
        <ele>187.8</ele>
        <time>2020-01-22T14:17:16Z</time>
      </trkpt>
      <trkpt lat="43.68294" lon="7.06929">
        <ele>188.4</ele>
        <time>2020-01-22T14:17:51Z</time>
      </trkpt>
      <trkpt lat="43.68336" lon="7.06906">
        <ele>176.2</ele>
        <time>2020-01-22T14:18:26Z</time>
      </trkpt>
      <trkpt lat="43.68334" lon="7.06907">
        <ele>172.2</ele>
        <time>2020-01-22T14:19:06Z</time>
      </trkpt>
      <trkpt lat="43.68321" lon="7.06918">
        <ele>179.6</ele>
        <time>2020-01-22T14:20:15Z</time>
      </trkpt>
      <trkpt lat="43.68319" lon="7.06919">
        <ele>180</ele>
        <time>2020-01-22T14:21:22Z</time>
      </trkpt>
      <trkpt lat="43.68317" lon="7.06918">
        <ele>182.2</ele>
        <time>2020-01-22T14:21:55Z</time>
      </trkpt>
      <trkpt lat="43.68317" lon="7.06917">
        <ele>178.4</ele>
        <time>2020-01-22T14:22:12Z</time>
      </trkpt>
      <trkpt lat="43.68317" lon="7.06916">
        <ele>177.2</ele>
        <time>2020-01-22T14:22:37Z</time>
      </trkpt>
      <trkpt lat="43.68313" lon="7.06914">
        <ele>177</ele>
        <time>2020-01-22T14:22:42Z</time>
      </trkpt>
      <trkpt lat="43.68312" lon="7.06911">
        <ele>177</ele>
        <time>2020-01-22T14:22:44Z</time>
      </trkpt>
      <trkpt lat="43.68302" lon="7.06891">
        <ele>177</ele>
        <time>2020-01-22T14:23:01Z</time>
      </trkpt>
      <trkpt lat="43.68295" lon="7.06889">
        <ele>176.2</ele>
        <time>2020-01-22T14:23:08Z</time>
      </trkpt>
      <trkpt lat="43.68285" lon="7.06889">
        <ele>176.6</ele>
        <time>2020-01-22T14:23:18Z</time>
      </trkpt>
      <trkpt lat="43.68275" lon="7.06886">
        <ele>179.4</ele>
        <time>2020-01-22T14:23:28Z</time>
      </trkpt>
      <trkpt lat="43.68268" lon="7.06884">
        <ele>181.2</ele>
        <time>2020-01-22T14:23:36Z</time>
      </trkpt>
      <trkpt lat="43.68255" lon="7.0688">
        <ele>183</ele>
        <time>2020-01-22T14:23:49Z</time>
      </trkpt>
      <trkpt lat="43.68245" lon="7.06879">
        <ele>184.4</ele>
        <time>2020-01-22T14:24:01Z</time>
      </trkpt>
      <trkpt lat="43.68224" lon="7.06881">
        <ele>192.2</ele>
        <time>2020-01-22T14:24:20Z</time>
      </trkpt>
      <trkpt lat="43.68179" lon="7.06877">
        <ele>198.8</ele>
        <time>2020-01-22T14:25:02Z</time>
      </trkpt>
      <trkpt lat="43.68171" lon="7.06872">
        <ele>198.8</ele>
        <time>2020-01-22T14:25:11Z</time>
      </trkpt>
      <trkpt lat="43.68159" lon="7.06865">
        <ele>198.8</ele>
        <time>2020-01-22T14:25:23Z</time>
      </trkpt>
      <trkpt lat="43.68147" lon="7.06853">
        <ele>199.6</ele>
        <time>2020-01-22T14:25:39Z</time>
      </trkpt>
      <trkpt lat="43.6815" lon="7.06797">
        <ele>208</ele>
        <time>2020-01-22T14:26:28Z</time>
      </trkpt>
      <trkpt lat="43.6815" lon="7.06785">
        <ele>212.2</ele>
        <time>2020-01-22T14:26:37Z</time>
      </trkpt>
      <trkpt lat="43.68145" lon="7.06732">
        <ele>220</ele>
        <time>2020-01-22T14:27:22Z</time>
      </trkpt>
      <trkpt lat="43.68111" lon="7.06718">
        <ele>225.6</ele>
        <time>2020-01-22T14:28:03Z</time>
      </trkpt>
      <trkpt lat="43.6807" lon="7.06701">
        <ele>229</ele>
        <time>2020-01-22T14:28:46Z</time>
      </trkpt>
      <trkpt lat="43.68054" lon="7.06696">
        <ele>225.8</ele>
        <time>2020-01-22T14:29:02Z</time>
      </trkpt>
      <trkpt lat="43.68033" lon="7.06686">
        <ele>228</ele>
        <time>2020-01-22T14:29:25Z</time>
      </trkpt>
      <trkpt lat="43.68012" lon="7.0664">
        <ele>229.8</ele>
        <time>2020-01-22T14:30:04Z</time>
      </trkpt>
      <trkpt lat="43.68015" lon="7.06627">
        <ele>232.6</ele>
        <time>2020-01-22T14:30:26Z</time>
      </trkpt>
      <trkpt lat="43.68014" lon="7.06627">
        <ele>230.8</ele>
        <time>2020-01-22T14:30:39Z</time>
      </trkpt>
      <trkpt lat="43.68014" lon="7.06627">
        <ele>230.4</ele>
        <time>2020-01-22T14:30:50Z</time>
      </trkpt>
      <trkpt lat="43.68015" lon="7.06627">
        <ele>234</ele>
        <time>2020-01-22T14:31:03Z</time>
      </trkpt>
      <trkpt lat="43.68015" lon="7.06629">
        <ele>236.2</ele>
        <time>2020-01-22T14:31:13Z</time>
      </trkpt>
      <trkpt lat="43.68013" lon="7.06632">
        <ele>237.8</ele>
        <time>2020-01-22T14:31:41Z</time>
      </trkpt>
      <trkpt lat="43.68015" lon="7.0663">
        <ele>242.6</ele>
        <time>2020-01-22T14:32:42Z</time>
      </trkpt>
      <trkpt lat="43.68014" lon="7.06631">
        <ele>240.8</ele>
        <time>2020-01-22T14:33:11Z</time>
      </trkpt>
      <trkpt lat="43.68006" lon="7.06637">
        <ele>238</ele>
        <time>2020-01-22T14:33:26Z</time>
      </trkpt>
      <trkpt lat="43.67997" lon="7.06639">
        <ele>237.8</ele>
        <time>2020-01-22T14:33:36Z</time>
      </trkpt>
      <trkpt lat="43.67992" lon="7.06639">
        <ele>240.2</ele>
        <time>2020-01-22T14:33:41Z</time>
      </trkpt>
      <trkpt lat="43.67948" lon="7.06626">
        <ele>239.6</ele>
        <time>2020-01-22T14:34:20Z</time>
      </trkpt>
      <trkpt lat="43.67905" lon="7.06615">
        <ele>234.8</ele>
        <time>2020-01-22T14:35:05Z</time>
      </trkpt>
      <trkpt lat="43.67897" lon="7.06619">
        <ele>234.6</ele>
        <time>2020-01-22T14:35:13Z</time>
      </trkpt>
      <trkpt lat="43.67853" lon="7.06631">
        <ele>229.8</ele>
        <time>2020-01-22T14:35:59Z</time>
      </trkpt>
      <trkpt lat="43.67808" lon="7.06642">
        <ele>230</ele>
        <time>2020-01-22T14:36:37Z</time>
      </trkpt>
      <trkpt lat="43.67777" lon="7.06642">
        <ele>230.2</ele>
        <time>2020-01-22T14:37:04Z</time>
      </trkpt>
      <trkpt lat="43.67744" lon="7.06598">
        <ele>225.2</ele>
        <time>2020-01-22T14:37:47Z</time>
      </trkpt>
      <trkpt lat="43.67728" lon="7.06542">
        <ele>227.8</ele>
        <time>2020-01-22T14:38:31Z</time>
      </trkpt>
      <trkpt lat="43.67728" lon="7.06537">
        <ele>228.2</ele>
        <time>2020-01-22T14:38:34Z</time>
      </trkpt>
      <trkpt lat="43.67734" lon="7.0651">
        <ele>229.4</ele>
        <time>2020-01-22T14:38:57Z</time>
      </trkpt>
      <trkpt lat="43.67732" lon="7.06498">
        <ele>231</ele>
        <time>2020-01-22T14:39:06Z</time>
      </trkpt>
      <trkpt lat="43.67736" lon="7.06455">
        <ele>233.4</ele>
        <time>2020-01-22T14:39:37Z</time>
      </trkpt>
      <trkpt lat="43.6774" lon="7.06417">
        <ele>235.6</ele>
        <time>2020-01-22T14:40:10Z</time>
      </trkpt>
      <trkpt lat="43.67731" lon="7.06371">
        <ele>233</ele>
        <time>2020-01-22T14:40:40Z</time>
      </trkpt>
      <trkpt lat="43.67726" lon="7.0632">
        <ele>232.2</ele>
        <time>2020-01-22T14:41:14Z</time>
      </trkpt>
      <trkpt lat="43.67721" lon="7.06275">
        <ele>237</ele>
        <time>2020-01-22T14:42:07Z</time>
      </trkpt>
      <trkpt lat="43.67718" lon="7.06267">
        <ele>238.2</ele>
        <time>2020-01-22T14:42:34Z</time>
      </trkpt>
      <trkpt lat="43.67716" lon="7.06264">
        <ele>238.8</ele>
        <time>2020-01-22T14:42:38Z</time>
      </trkpt>
      <trkpt lat="43.67715" lon="7.06262">
        <ele>238.8</ele>
        <time>2020-01-22T14:42:40Z</time>
      </trkpt>
      <trkpt lat="43.67709" lon="7.06248">
        <ele>239.6</ele>
        <time>2020-01-22T14:42:50Z</time>
      </trkpt>
      <trkpt lat="43.67668" lon="7.06224">
        <ele>234.8</ele>
        <time>2020-01-22T14:43:37Z</time>
      </trkpt>
      <trkpt lat="43.67662" lon="7.06225">
        <ele>231.6</ele>
        <time>2020-01-22T14:43:49Z</time>
      </trkpt>
      <trkpt lat="43.6763" lon="7.06261">
        <ele>224.8</ele>
        <time>2020-01-22T14:44:28Z</time>
      </trkpt>
      <trkpt lat="43.67625" lon="7.06274">
        <ele>225</ele>
        <time>2020-01-22T14:44:38Z</time>
      </trkpt>
      <trkpt lat="43.67584" lon="7.06288">
        <ele>225.4</ele>
        <time>2020-01-22T14:45:13Z</time>
      </trkpt>
      <trkpt lat="43.67574" lon="7.063">
        <ele>226.8</ele>
        <time>2020-01-22T14:45:23Z</time>
      </trkpt>
      <trkpt lat="43.67538" lon="7.0633">
        <ele>222.6</ele>
        <time>2020-01-22T14:45:59Z</time>
      </trkpt>
      <trkpt lat="43.67529" lon="7.06331">
        <ele>225.8</ele>
        <time>2020-01-22T14:46:11Z</time>
      </trkpt>
      <trkpt lat="43.67523" lon="7.0633">
        <ele>230.8</ele>
        <time>2020-01-22T14:46:16Z</time>
      </trkpt>
      <trkpt lat="43.67505" lon="7.06301">
        <ele>239.2</ele>
        <time>2020-01-22T14:46:42Z</time>
      </trkpt>
      <trkpt lat="43.67499" lon="7.06276">
        <ele>241</ele>
        <time>2020-01-22T14:47:00Z</time>
      </trkpt>
      <trkpt lat="43.67483" lon="7.06219">
        <ele>237.8</ele>
        <time>2020-01-22T14:47:42Z</time>
      </trkpt>
      <trkpt lat="43.6744" lon="7.06195">
        <ele>234</ele>
        <time>2020-01-22T14:48:25Z</time>
      </trkpt>
      <trkpt lat="43.67419" lon="7.06141">
        <ele>236.2</ele>
        <time>2020-01-22T14:49:04Z</time>
      </trkpt>
      <trkpt lat="43.67397" lon="7.06086">
        <ele>246.8</ele>
        <time>2020-01-22T14:49:46Z</time>
      </trkpt>
      <trkpt lat="43.67383" lon="7.06035">
        <ele>244</ele>
        <time>2020-01-22T14:50:19Z</time>
      </trkpt>
      <trkpt lat="43.67385" lon="7.06015">
        <ele>243.8</ele>
        <time>2020-01-22T14:50:35Z</time>
      </trkpt>
      <trkpt lat="43.67377" lon="7.0597">
        <ele>242.8</ele>
        <time>2020-01-22T14:51:12Z</time>
      </trkpt>
      <trkpt lat="43.67377" lon="7.05968">
        <ele>243.4</ele>
        <time>2020-01-22T14:51:14Z</time>
      </trkpt>
      <trkpt lat="43.67365" lon="7.05939">
        <ele>248</ele>
        <time>2020-01-22T14:51:43Z</time>
      </trkpt>
      <trkpt lat="43.67364" lon="7.05905">
        <ele>247.4</ele>
        <time>2020-01-22T14:52:47Z</time>
      </trkpt>
      <trkpt lat="43.6738" lon="7.05897">
        <ele>244.8</ele>
        <time>2020-01-22T14:53:05Z</time>
      </trkpt>
      <trkpt lat="43.67415" lon="7.05925">
        <ele>242.4</ele>
        <time>2020-01-22T14:53:42Z</time>
      </trkpt>
      <trkpt lat="43.67458" lon="7.05945">
        <ele>245.6</ele>
        <time>2020-01-22T14:54:20Z</time>
      </trkpt>
      <trkpt lat="43.675" lon="7.05969">
        <ele>238</ele>
        <time>2020-01-22T14:55:01Z</time>
      </trkpt>
      <trkpt lat="43.67521" lon="7.05965">
        <ele>236.4</ele>
        <time>2020-01-22T14:55:31Z</time>
      </trkpt>
      <trkpt lat="43.67524" lon="7.05952">
        <ele>235.8</ele>
        <time>2020-01-22T14:55:39Z</time>
      </trkpt>
      <trkpt lat="43.67537" lon="7.05944">
        <ele>234.4</ele>
        <time>2020-01-22T14:55:53Z</time>
      </trkpt>
      <trkpt lat="43.67547" lon="7.05946">
        <ele>234.6</ele>
        <time>2020-01-22T14:56:03Z</time>
      </trkpt>
      <trkpt lat="43.67557" lon="7.05947">
        <ele>237.8</ele>
        <time>2020-01-22T14:56:17Z</time>
      </trkpt>
      <trkpt lat="43.67594" lon="7.05958">
        <ele>238.6</ele>
        <time>2020-01-22T14:56:58Z</time>
      </trkpt>
      <trkpt lat="43.67617" lon="7.05978">
        <ele>234</ele>
        <time>2020-01-22T14:57:30Z</time>
      </trkpt>
      <trkpt lat="43.67661" lon="7.05994">
        <ele>230.6</ele>
        <time>2020-01-22T14:58:11Z</time>
      </trkpt>
      <trkpt lat="43.677" lon="7.05997">
        <ele>230.8</ele>
        <time>2020-01-22T14:58:59Z</time>
      </trkpt>
      <trkpt lat="43.677" lon="7.05996">
        <ele>232.2</ele>
        <time>2020-01-22T14:59:52Z</time>
      </trkpt>
      <trkpt lat="43.677" lon="7.05997">
        <ele>232.8</ele>
        <time>2020-01-22T15:00:19Z</time>
      </trkpt>
      <trkpt lat="43.67698" lon="7.05996">
        <ele>233.8</ele>
        <time>2020-01-22T15:00:43Z</time>
      </trkpt>
      <trkpt lat="43.67698" lon="7.05996">
        <ele>233.8</ele>
        <time>2020-01-22T15:00:52Z</time>
      </trkpt>
      <trkpt lat="43.67699" lon="7.05996">
        <ele>234</ele>
        <time>2020-01-22T15:01:05Z</time>
      </trkpt>
      <trkpt lat="43.677" lon="7.05996">
        <ele>234.4</ele>
        <time>2020-01-22T15:01:35Z</time>
      </trkpt>
      <trkpt lat="43.677" lon="7.05996">
        <ele>234.4</ele>
        <time>2020-01-22T15:01:45Z</time>
      </trkpt>
      <trkpt lat="43.67699" lon="7.05996">
        <ele>234</ele>
        <time>2020-01-22T15:01:54Z</time>
      </trkpt>
      <trkpt lat="43.67699" lon="7.05997">
        <ele>234.4</ele>
        <time>2020-01-22T15:02:15Z</time>
      </trkpt>
      <trkpt lat="43.67701" lon="7.05997">
        <ele>236</ele>
        <time>2020-01-22T15:02:39Z</time>
      </trkpt>
      <trkpt lat="43.67705" lon="7.05997">
        <ele>235.8</ele>
        <time>2020-01-22T15:02:55Z</time>
      </trkpt>
      <trkpt lat="43.67711" lon="7.05994">
        <ele>236</ele>
        <time>2020-01-22T15:03:10Z</time>
      </trkpt>
      <trkpt lat="43.67744" lon="7.05992">
        <ele>231</ele>
        <time>2020-01-22T15:03:34Z</time>
      </trkpt>
      <trkpt lat="43.67786" lon="7.05974">
        <ele>231.2</ele>
        <time>2020-01-22T15:04:08Z</time>
      </trkpt>
      <trkpt lat="43.67827" lon="7.05948">
        <ele>229.2</ele>
        <time>2020-01-22T15:04:41Z</time>
      </trkpt>
      <trkpt lat="43.67866" lon="7.05955">
        <ele>228</ele>
        <time>2020-01-22T15:05:11Z</time>
      </trkpt>
      <trkpt lat="43.67903" lon="7.05919">
        <ele>224.6</ele>
        <time>2020-01-22T15:05:44Z</time>
      </trkpt>
      <trkpt lat="43.67919" lon="7.05905">
        <ele>225</ele>
        <time>2020-01-22T15:05:58Z</time>
      </trkpt>
      <trkpt lat="43.67929" lon="7.05901">
        <ele>224.8</ele>
        <time>2020-01-22T15:06:06Z</time>
      </trkpt>
      <trkpt lat="43.67932" lon="7.05907">
        <ele>223</ele>
        <time>2020-01-22T15:06:20Z</time>
      </trkpt>
      <trkpt lat="43.67932" lon="7.05908">
        <ele>222.6</ele>
        <time>2020-01-22T15:06:53Z</time>
      </trkpt>
      <trkpt lat="43.67933" lon="7.05913">
        <ele>222.6</ele>
        <time>2020-01-22T15:07:07Z</time>
      </trkpt>
      <trkpt lat="43.67947" lon="7.05968">
        <ele>222.6</ele>
        <time>2020-01-22T15:07:36Z</time>
      </trkpt>
      <trkpt lat="43.67952" lon="7.06024">
        <ele>225.8</ele>
        <time>2020-01-22T15:08:06Z</time>
      </trkpt>
      <trkpt lat="43.67962" lon="7.06041">
        <ele>224.6</ele>
        <time>2020-01-22T15:08:17Z</time>
      </trkpt>
      <trkpt lat="43.67984" lon="7.06095">
        <ele>223.2</ele>
        <time>2020-01-22T15:08:50Z</time>
      </trkpt>
      <trkpt lat="43.68005" lon="7.06151">
        <ele>226.2</ele>
        <time>2020-01-22T15:09:25Z</time>
      </trkpt>
      <trkpt lat="43.68032" lon="7.06198">
        <ele>222.6</ele>
        <time>2020-01-22T15:09:59Z</time>
      </trkpt>
      <trkpt lat="43.68037" lon="7.06198">
        <ele>226.6</ele>
        <time>2020-01-22T15:10:11Z</time>
      </trkpt>
      <trkpt lat="43.68039" lon="7.06195">
        <ele>231.4</ele>
        <time>2020-01-22T15:10:28Z</time>
      </trkpt>
      <trkpt lat="43.6804" lon="7.06199">
        <ele>230.6</ele>
        <time>2020-01-22T15:10:45Z</time>
      </trkpt>
      <trkpt lat="43.68051" lon="7.06241">
        <ele>235.2</ele>
        <time>2020-01-22T15:11:15Z</time>
      </trkpt>
      <trkpt lat="43.68054" lon="7.06259">
        <ele>236.2</ele>
        <time>2020-01-22T15:11:26Z</time>
      </trkpt>
      <trkpt lat="43.68073" lon="7.06281">
        <ele>237.2</ele>
        <time>2020-01-22T15:11:46Z</time>
      </trkpt>
      <trkpt lat="43.68086" lon="7.06307">
        <ele>234.8</ele>
        <time>2020-01-22T15:12:04Z</time>
      </trkpt>
      <trkpt lat="43.68106" lon="7.0632">
        <ele>235.4</ele>
        <time>2020-01-22T15:12:20Z</time>
      </trkpt>
      <trkpt lat="43.68125" lon="7.06337">
        <ele>238.6</ele>
        <time>2020-01-22T15:12:35Z</time>
      </trkpt>
      <trkpt lat="43.68125" lon="7.06342">
        <ele>240</ele>
        <time>2020-01-22T15:12:40Z</time>
      </trkpt>
      <trkpt lat="43.68115" lon="7.06355">
        <ele>235.2</ele>
        <time>2020-01-22T15:12:51Z</time>
      </trkpt>
      <trkpt lat="43.68112" lon="7.06378">
        <ele>238.8</ele>
        <time>2020-01-22T15:13:03Z</time>
      </trkpt>
      <trkpt lat="43.68102" lon="7.0644">
        <ele>229.8</ele>
        <time>2020-01-22T15:13:37Z</time>
      </trkpt>
      <trkpt lat="43.68099" lon="7.06447">
        <ele>245.2</ele>
        <time>2020-01-22T15:14:00Z</time>
      </trkpt>
      <trkpt lat="43.68099" lon="7.06446">
        <ele>247</ele>
        <time>2020-01-22T15:14:13Z</time>
      </trkpt>
      <trkpt lat="43.68102" lon="7.06447">
        <ele>245.4</ele>
        <time>2020-01-22T15:14:28Z</time>
      </trkpt>
      <trkpt lat="43.68135" lon="7.06412">
        <ele>245</ele>
        <time>2020-01-22T15:15:04Z</time>
      </trkpt>
      <trkpt lat="43.68158" lon="7.0637">
        <ele>244</ele>
        <time>2020-01-22T15:15:31Z</time>
      </trkpt>
      <trkpt lat="43.68159" lon="7.06368">
        <ele>243.8</ele>
        <time>2020-01-22T15:15:37Z</time>
      </trkpt>
      <trkpt lat="43.68161" lon="7.06365">
        <ele>245.6</ele>
        <time>2020-01-22T15:15:44Z</time>
      </trkpt>
      <trkpt lat="43.68165" lon="7.06361">
        <ele>246.2</ele>
        <time>2020-01-22T15:15:47Z</time>
      </trkpt>
      <trkpt lat="43.68197" lon="7.06332">
        <ele>247.4</ele>
        <time>2020-01-22T15:16:18Z</time>
      </trkpt>
      <trkpt lat="43.68202" lon="7.06272">
        <ele>244.2</ele>
        <time>2020-01-22T15:16:52Z</time>
      </trkpt>
      <trkpt lat="43.68203" lon="7.06225">
        <ele>241.8</ele>
        <time>2020-01-22T15:17:16Z</time>
      </trkpt>
      <trkpt lat="43.68217" lon="7.0617">
        <ele>241.6</ele>
        <time>2020-01-22T15:17:49Z</time>
      </trkpt>
      <trkpt lat="43.68191" lon="7.06163">
        <ele>231.4</ele>
        <time>2020-01-22T15:18:12Z</time>
      </trkpt>
      <trkpt lat="43.68182" lon="7.06192">
        <ele>226.8</ele>
        <time>2020-01-22T15:18:35Z</time>
      </trkpt>
      <trkpt lat="43.68179" lon="7.06209">
        <ele>224</ele>
        <time>2020-01-22T15:18:46Z</time>
      </trkpt>
      <trkpt lat="43.68176" lon="7.06214">
        <ele>220.8</ele>
        <time>2020-01-22T15:18:53Z</time>
      </trkpt>
      <trkpt lat="43.68172" lon="7.06216">
        <ele>218.2</ele>
        <time>2020-01-22T15:18:58Z</time>
      </trkpt>
      <trkpt lat="43.68125" lon="7.06224">
        <ele>232.2</ele>
        <time>2020-01-22T15:19:27Z</time>
      </trkpt>
      <trkpt lat="43.6808" lon="7.06216">
        <ele>232.4</ele>
        <time>2020-01-22T15:20:00Z</time>
      </trkpt>
      <trkpt lat="43.68037" lon="7.06194">
        <ele>229.8</ele>
        <time>2020-01-22T15:20:33Z</time>
      </trkpt>
      <trkpt lat="43.68004" lon="7.06152">
        <ele>232.2</ele>
        <time>2020-01-22T15:21:03Z</time>
      </trkpt>
      <trkpt lat="43.67985" lon="7.06094">
        <ele>228</ele>
        <time>2020-01-22T15:21:34Z</time>
      </trkpt>
      <trkpt lat="43.67964" lon="7.06039">
        <ele>229.4</ele>
        <time>2020-01-22T15:22:06Z</time>
      </trkpt>
      <trkpt lat="43.6795" lon="7.05984">
        <ele>227.2</ele>
        <time>2020-01-22T15:22:38Z</time>
      </trkpt>
      <trkpt lat="43.67936" lon="7.05925">
        <ele>225</ele>
        <time>2020-01-22T15:23:09Z</time>
      </trkpt>
      <trkpt lat="43.6793" lon="7.05903">
        <ele>226.4</ele>
        <time>2020-01-22T15:23:21Z</time>
      </trkpt>
      <trkpt lat="43.67925" lon="7.05858">
        <ele>226.2</ele>
        <time>2020-01-22T15:23:45Z</time>
      </trkpt>
      <trkpt lat="43.67921" lon="7.05835">
        <ele>224.4</ele>
        <time>2020-01-22T15:24:16Z</time>
      </trkpt>
      <trkpt lat="43.67916" lon="7.0582">
        <ele>223.4</ele>
        <time>2020-01-22T15:24:27Z</time>
      </trkpt>
      <trkpt lat="43.679" lon="7.05765">
        <ele>226.4</ele>
        <time>2020-01-22T15:24:59Z</time>
      </trkpt>
      <trkpt lat="43.67887" lon="7.05716">
        <ele>226.6</ele>
        <time>2020-01-22T15:25:29Z</time>
      </trkpt>
      <trkpt lat="43.67889" lon="7.0568">
        <ele>229</ele>
        <time>2020-01-22T15:26:00Z</time>
      </trkpt>
      <trkpt lat="43.67892" lon="7.05661">
        <ele>226.8</ele>
        <time>2020-01-22T15:26:11Z</time>
      </trkpt>
      <trkpt lat="43.67894" lon="7.05636">
        <ele>226.8</ele>
        <time>2020-01-22T15:26:24Z</time>
      </trkpt>
      <trkpt lat="43.67902" lon="7.05588">
        <ele>229.2</ele>
        <time>2020-01-22T15:26:54Z</time>
      </trkpt>
      <trkpt lat="43.67919" lon="7.05528">
        <ele>231</ele>
        <time>2020-01-22T15:27:27Z</time>
      </trkpt>
      <trkpt lat="43.67938" lon="7.05472">
        <ele>217</ele>
        <time>2020-01-22T15:27:59Z</time>
      </trkpt>
      <trkpt lat="43.67939" lon="7.05422">
        <ele>223.2</ele>
        <time>2020-01-22T15:28:45Z</time>
      </trkpt>
      <trkpt lat="43.67939" lon="7.05415">
        <ele>223</ele>
        <time>2020-01-22T15:29:02Z</time>
      </trkpt>
      <trkpt lat="43.67939" lon="7.054">
        <ele>221.8</ele>
        <time>2020-01-22T15:29:09Z</time>
      </trkpt>
      <trkpt lat="43.6794" lon="7.0539">
        <ele>219</ele>
        <time>2020-01-22T15:29:15Z</time>
      </trkpt>
      <trkpt lat="43.67939" lon="7.05373">
        <ele>214.2</ele>
        <time>2020-01-22T15:29:26Z</time>
      </trkpt>
      <trkpt lat="43.67938" lon="7.05334">
        <ele>207.4</ele>
        <time>2020-01-22T15:29:50Z</time>
      </trkpt>
      <trkpt lat="43.67936" lon="7.05306">
        <ele>202.8</ele>
        <time>2020-01-22T15:30:07Z</time>
      </trkpt>
      <trkpt lat="43.67937" lon="7.05284">
        <ele>199.8</ele>
        <time>2020-01-22T15:30:18Z</time>
      </trkpt>
      <trkpt lat="43.67944" lon="7.05222">
        <ele>195</ele>
        <time>2020-01-22T15:30:47Z</time>
      </trkpt>
      <trkpt lat="43.6796" lon="7.05191">
        <ele>190</ele>
        <time>2020-01-22T15:31:08Z</time>
      </trkpt>
      <trkpt lat="43.67976" lon="7.05167">
        <ele>192.6</ele>
        <time>2020-01-22T15:31:40Z</time>
      </trkpt>
      <trkpt lat="43.67978" lon="7.05164">
        <ele>198.6</ele>
        <time>2020-01-22T15:32:00Z</time>
      </trkpt>
      <trkpt lat="43.67981" lon="7.05164">
        <ele>202.6</ele>
        <time>2020-01-22T15:32:10Z</time>
      </trkpt>
      <trkpt lat="43.67982" lon="7.05162">
        <ele>205.8</ele>
        <time>2020-01-22T15:32:17Z</time>
      </trkpt>
      <trkpt lat="43.67982" lon="7.05161">
        <ele>208</ele>
        <time>2020-01-22T15:32:32Z</time>
      </trkpt>
      <trkpt lat="43.67981" lon="7.05163">
        <ele>209.6</ele>
        <time>2020-01-22T15:32:48Z</time>
      </trkpt>
    </trkseg>
  </trk>
</gpx>